Enter the Airport ICAO Code

Search by Airport or City

Current Weather

LEAM | Almería Airport

Almería, Andalusia, Spain

Last Update 21 Minutes Ago

Mostly Cloudy Sky

Temperature of 15 ºC

Moderate Winds from East

Temperature

15 ºC

Dew Point Temperature

09 ºC

Relative Humidity

67.47 %

Wind Direction

East (070º, Without Significant Variations)

Wind Velocity

22 km/h (12 kt)

Gusts

None

Visibility

Greater than 10 Kilometers

Sea Level Pressure

1015 hPa (Hectopascals)

Layers of Clouds

60% to 90% of Sky Covered from 1524 mts (5000 ft) Above Ground Level.

METAR LEAM 022100Z 07012KT 9999 BKN050 15/09 Q1015

Weather Forecast

LEAM | Almería Airport

Almería, Andalusia, Spain

Forecast valid for the next 24 Hours

From now on it is expected:

Sky with Few Clouds

Moderate Winds from NorthEast

In 6 to 8 hours it is expected the begining of:

Light to Moderate Winds from NorthWest

In 16 to 18 hours it is expected the begining of:

Moderate Winds from SouthWest

Maximum Temperature

17 ºC in 18 Hours

Minimum Temperature

10 ºC in 10 Hours

TAF LEAM 022000Z 0221/0321 06010KT 9999 FEW030 TX17/0315Z TN10/0307Z BECMG 0303/0305 33006KT BECMG 0313/0315 22013KT